createdAt,value
2019-05-01T00:04:25.792Z,59.84
2019-05-01T00:09:32.180Z,59.64
2019-05-01T00:14:37.644Z,59.78
2019-05-01T00:19:43.112Z,60.04
2019-05-01T00:24:48.140Z,60.11
2019-05-01T00:29:53.716Z,59.87
2019-05-01T00:34:58.876Z,60.05
2019-05-01T00:40:06.584Z,59.62
2019-05-01T00:45:11.923Z,60.12
2019-05-01T00:50:17.612Z,59.99
2019-05-01T00:55:39.564Z,59.90
2019-05-01T01:00:46.546Z,59.66
2019-05-01T01:05:53.041Z,59.58
2019-05-01T01:10:58.399Z,59.67
2019-05-01T01:16:03.869Z,59.37
2019-05-01T01:21:09.255Z,60.62
2019-05-01T01:26:14.733Z,60.20
2019-05-01T01:31:20.820Z,60.20
2019-05-01T01:36:26.334Z,59.65
2019-05-01T01:41:32.195Z,59.60
2019-05-01T01:46:42.312Z,59.86
2019-05-01T01:51:48.022Z,60.53
2019-05-01T01:56:53.490Z,60.13
2019-05-01T02:02:00.899Z,59.95
2019-05-01T02:07:06.290Z,59.71
2019-05-01T02:12:12.026Z,59.54
2019-05-01T02:17:17.594Z,59.35
2019-05-01T02:22:22.809Z,59.74
2019-05-01T02:27:30.456Z,60.01
2019-05-01T02:32:36.907Z,60.23
2019-05-01T02:37:45.578Z,60.14
2019-05-01T02:42:51.886Z,59.91
2019-05-01T02:47:58.147Z,60.00
2019-05-01T02:53:03.811Z,60.09
2019-05-01T02:58:10.681Z,60.27
2019-05-01T03:03:16.270Z,60.31
2019-05-01T03:08:21.733Z,59.99
2019-05-01T03:13:27.417Z,60.02
2019-05-01T03:18:50.591Z,59.80
2019-05-01T03:24:04.218Z,59.39
2019-05-01T03:29:10.396Z,59.22
2019-05-01T03:34:15.898Z,59.22
2019-05-01T03:39:21.900Z,58.94
2019-05-01T03:44:27.498Z,58.61
2019-05-01T03:49:33.630Z,58.67
2019-05-01T03:54:38.994Z,58.51
2019-05-01T03:59:44.959Z,58.10
2019-05-01T04:04:50.632Z,57.93
2019-05-01T04:09:55.868Z,58.24
2019-05-01T04:15:01.253Z,58.18
2019-05-01T04:20:07.672Z,58.25
2019-05-01T04:25:13.370Z,58.34
2019-05-01T04:30:20.570Z,58.30
2019-05-01T04:35:27.868Z,57.72
2019-05-01T04:40:33.227Z,57.18
2019-05-01T04:45:38.678Z,57.02
2019-05-01T04:50:43.981Z,56.81
2019-05-01T04:55:49.581Z,56.46
2019-05-01T05:00:54.812Z,56.10
2019-05-01T05:06:01.268Z,55.38
2019-05-01T05:11:08.441Z,55.34
2019-05-01T05:16:21.463Z,54.32
2019-05-01T05:21:27.845Z,53.12
2019-05-01T05:26:33.938Z,52.13
2019-05-01T05:31:41.433Z,51.72
2019-05-01T05:36:48.638Z,50.75
2019-05-01T05:41:55.855Z,50.27
2019-05-01T05:47:02.314Z,49.80
2019-05-01T05:52:29.184Z,49.63
2019-05-01T05:57:43.122Z,48.55
2019-05-01T06:02:52.109Z,48.22
2019-05-01T06:08:20.009Z,46.66
2019-05-01T06:13:44.221Z,45.79
2019-05-01T06:18:54.246Z,44.74
2019-05-01T06:24:06.569Z,43.29
2019-05-01T06:29:08.863Z,42.37
2019-05-01T06:34:14.419Z,42.29
2019-05-01T06:39:19.878Z,42.19
2019-05-01T06:44:27.714Z,41.75
2019-05-01T06:49:52.806Z,41.33
2019-05-01T06:54:59.297Z,41.08
2019-05-01T07:00:09.465Z,41.97
2019-05-01T07:05:16.505Z,41.56
2019-05-01T07:10:30.608Z,43.09
2019-05-01T07:15:29.649Z,41.68
2019-05-01T07:20:53.195Z,41.59
2019-05-01T07:26:00.145Z,40.68
2019-05-01T07:31:06.195Z,41.12
2019-05-01T07:36:15.169Z,41.83
2019-05-01T07:41:20.593Z,42.83
2019-05-01T07:46:28.039Z,41.37
2019-05-01T07:51:37.785Z,41.27
2019-05-01T07:56:40.908Z,40.51
2019-05-01T08:01:49.815Z,40.50
2019-05-01T08:06:56.982Z,38.64
2019-05-01T08:12:01.890Z,38.02
2019-05-01T08:17:07.292Z,36.60
2019-05-01T08:22:14.441Z,36.72
2019-05-01T08:27:25.334Z,36.11
2019-05-01T08:32:44.310Z,36.51
2019-05-01T08:37:49.513Z,36.42
2019-05-01T08:42:54.754Z,33.69
2019-05-01T08:48:10.709Z,35.12
2019-05-01T08:53:18.129Z,34.63
2019-05-01T08:58:23.597Z,35.68
2019-05-01T09:03:28.795Z,37.59
2019-05-01T09:08:34.013Z,37.30
2019-05-01T09:13:39.234Z,37.69
2019-05-01T09:18:44.729Z,41.04
2019-05-01T09:23:51.555Z,38.66
2019-05-01T09:28:58.539Z,39.22
2019-05-01T09:34:05.303Z,38.54
2019-05-01T09:39:12.187Z,37.45
2019-05-01T09:44:17.405Z,37.30
2019-05-01T09:49:22.618Z,36.47
2019-05-01T09:54:43.087Z,34.87
2019-05-01T09:59:45.810Z,34.33
2019-05-01T10:04:50.990Z,33.62
2019-05-01T10:09:56.444Z,32.45
2019-05-01T10:15:01.668Z,30.97
2019-05-01T10:20:08.179Z,32.19
2019-05-01T10:25:13.699Z,31.86
2019-05-01T10:30:20.753Z,31.80
2019-05-01T10:35:41.886Z,31.48
2019-05-01T10:40:37.507Z,30.74
2019-05-01T10:45:42.948Z,30.30
2019-05-01T10:50:48.144Z,30.58
2019-05-01T10:55:53.817Z,30.28
2019-05-01T11:01:00.761Z,29.88
2019-05-01T11:06:07.150Z,29.81
2019-05-01T11:11:12.351Z,29.79
2019-05-01T11:16:17.874Z,30.12
2019-05-01T11:21:23.244Z,30.52
2019-05-01T11:26:30.031Z,30.72
2019-05-01T11:31:40.028Z,29.59
2019-05-01T11:37:02.942Z,29.40
2019-05-01T11:42:10.961Z,30.61
2019-05-01T11:47:16.063Z,31.14
2019-05-01T11:52:21.455Z,31.83
2019-05-01T11:57:26.733Z,32.14
2019-05-01T12:02:32.012Z,33.48
2019-05-01T12:07:37.204Z,31.94
2019-05-01T12:12:42.523Z,31.15
2019-05-01T12:17:48.876Z,32.46
2019-05-01T12:22:54.135Z,33.22
2019-05-01T12:27:59.625Z,34.09
2019-05-01T12:33:05.200Z,33.06
2019-05-01T12:38:10.494Z,36.24
2019-05-01T12:43:16.297Z,36.39
2019-05-01T12:48:21.811Z,37.22
2019-05-01T12:53:28.846Z,42.18
2019-05-01T12:58:34.532Z,42.40
2019-05-01T13:03:39.906Z,41.73
2019-05-01T13:08:45.114Z,41.67
2019-05-01T13:13:50.595Z,41.60
2019-05-01T13:18:55.731Z,41.95
2019-05-01T13:24:01.164Z,42.16
2019-05-01T13:29:13.999Z,42.72
2019-05-01T13:34:19.336Z,42.06
2019-05-01T13:39:24.701Z,40.56
2019-05-01T13:44:30.046Z,35.18
2019-05-01T13:49:35.291Z,32.78
2019-05-01T13:54:40.866Z,33.47
2019-05-01T13:59:47.211Z,28.65
2019-05-01T14:04:52.712Z,29.50
2019-05-01T14:09:57.915Z,30.11
2019-05-01T14:15:03.151Z,31.85
2019-05-01T14:20:26.924Z,31.73
2019-05-01T14:25:46.016Z,33.18
2019-05-01T14:30:51.184Z,32.04
2019-05-01T14:35:56.612Z,32.62
2019-05-01T14:41:02.207Z,32.90
2019-05-01T14:46:07.788Z,32.14
2019-05-01T14:51:13.330Z,33.26
2019-05-01T14:56:18.782Z,35.15
2019-05-01T15:01:24.287Z,36.05
2019-05-01T15:06:29.786Z,41.46
2019-05-01T15:11:35.250Z,57.76
2019-05-01T15:16:42.076Z,63.99
2019-05-01T15:21:47.406Z,69.69
2019-05-01T15:26:52.606Z,72.38
2019-05-01T15:31:58.070Z,73.43
2019-05-01T15:37:03.437Z,73.40
2019-05-01T15:42:10.320Z,73.22
2019-05-01T15:47:15.661Z,74.17
2019-05-01T15:52:21.076Z,72.30
2019-05-01T15:57:26.453Z,71.86
2019-05-01T16:02:31.777Z,71.84
2019-05-01T16:07:37.025Z,71.23
2019-05-01T16:12:46.727Z,71.21
2019-05-01T16:17:51.981Z,71.22
2019-05-01T16:22:57.439Z,70.03
2019-05-01T16:28:03.023Z,70.26
2019-05-01T16:33:08.294Z,69.58
2019-05-01T16:38:22.770Z,68.58
2019-05-01T16:43:22.187Z,68.63
2019-05-01T16:48:27.669Z,68.33
2019-05-01T16:53:33.182Z,68.11
2019-05-01T16:58:38.975Z,67.21
2019-05-01T17:04:01.389Z,67.25
2019-05-01T17:09:32.205Z,67.16
2019-05-01T17:14:37.979Z,67.56
2019-05-01T17:19:43.394Z,67.78
2019-05-01T17:24:48.857Z,67.36
2019-05-01T17:29:55.429Z,67.39
2019-05-01T17:35:01.889Z,67.43
2019-05-01T17:40:07.892Z,67.49
2019-05-01T17:45:13.279Z,67.16
2019-05-01T17:50:21.010Z,67.51
2019-05-01T17:55:25.739Z,67.04
2019-05-01T18:00:38.781Z,67.10
2019-05-01T18:06:01.441Z,67.02
2019-05-01T18:11:05.194Z,66.99
2019-05-01T18:16:10.791Z,66.75
2019-05-01T18:21:16.579Z,66.37
2019-05-01T18:26:29.858Z,66.65
2019-05-01T18:31:35.516Z,66.43
2019-05-01T18:36:59.787Z,66.43
2019-05-01T18:42:10.179Z,66.64
2019-05-01T18:47:15.829Z,67.75
2019-05-01T18:52:21.385Z,66.73
2019-05-01T18:57:26.874Z,66.84
2019-05-01T19:02:32.620Z,67.40
2019-05-01T19:07:37.878Z,67.80
2019-05-01T19:12:43.281Z,68.28
2019-05-01T19:17:48.898Z,68.40
2019-05-01T19:22:54.120Z,68.69
2019-05-01T19:27:59.453Z,69.33
2019-05-01T19:33:05.781Z,69.56
2019-05-01T19:38:11.761Z,69.59
2019-05-01T19:43:17.214Z,69.87
2019-05-01T19:48:22.597Z,70.48
2019-05-01T19:53:29.051Z,71.33
2019-05-01T19:58:34.663Z,71.04
2019-05-01T20:03:40.105Z,70.89
2019-05-01T20:08:45.650Z,71.09
2019-05-01T20:13:51.318Z,70.81
2019-05-01T20:18:56.898Z,70.78
2019-05-01T20:24:04.362Z,70.81
2019-05-01T20:29:09.197Z,71.38
2019-05-01T20:34:17.351Z,71.39
2019-05-01T20:39:23.807Z,71.35
2019-05-01T20:44:28.814Z,71.72
2019-05-01T20:49:36.440Z,71.72
2019-05-01T20:54:41.093Z,71.96
2019-05-01T20:59:48.238Z,72.43
2019-05-01T21:04:55.055Z,72.24
2019-05-01T21:10:02.262Z,72.21
2019-05-01T21:15:08.228Z,71.93
2019-05-01T21:20:13.947Z,72.35
2019-05-01T21:25:19.257Z,72.70
2019-05-01T21:30:24.524Z,72.50
2019-05-01T21:35:29.782Z,72.80
2019-05-01T21:40:40.801Z,72.64
2019-05-01T21:45:43.393Z,72.78
2019-05-01T21:50:49.027Z,72.83
2019-05-01T21:55:54.451Z,72.47
2019-05-01T22:01:01.156Z,72.50
2019-05-01T22:06:11.301Z,72.37
2019-05-01T22:11:14.108Z,72.31
2019-05-01T22:16:28.193Z,72.18
2019-05-01T22:21:44.585Z,71.91
2019-05-01T22:26:54.642Z,71.79
2019-05-01T22:32:13.739Z,71.64
2019-05-01T22:37:19.228Z,71.88
2019-05-01T22:42:24.619Z,71.64
2019-05-01T22:47:30.525Z,71.33
2019-05-01T22:52:37.290Z,71.32
2019-05-01T22:57:42.572Z,71.31
2019-05-01T23:02:47.992Z,71.12
2019-05-01T23:07:53.384Z,70.86
2019-05-01T23:12:59.037Z,71.13
2019-05-01T23:18:04.863Z,71.02
2019-05-01T23:23:10.528Z,71.38
2019-05-01T23:28:16.190Z,71.01
2019-05-01T23:33:23.289Z,70.77
2019-05-01T23:38:29.095Z,70.65
2019-05-01T23:43:35.208Z,70.66
2019-05-01T23:48:40.523Z,69.84
2019-05-01T23:53:48.294Z,69.73
2019-05-01T23:58:52.955Z,69.74
